LNK589 FAOR-FAKM
Flight info
| Callsign | LNK589 |
|---|---|
| Flight time | 0h 43m |
| Altitude | 34000 |
| Route | RAGUL3A RAGUL UQ10 APMIN DCT APDUR DCT KYV |
| Aircraft | E195/M-SDE3GILORVW/S |
Departure
| Time | 2026-04-22 13:00 |
|---|---|
| Airport | O.R. Tambo International Airport (FAOR) |
Arrival
| Time | 2026-04-22 13:43 |
|---|---|
| Airport | Kimberley Airport (FAKM) |
| Time | Latitude | Longitude | Altitude | Speed | Heading |
|---|---|---|---|---|---|
| 2026-04-22 12:33 | -26.13827 | 28.23051 | 5584 ft | 0 kts | 187° |
| 2026-04-22 12:47 | -26.13826 | 28.23051 | 5584 ft | 1 kts | 187° |
| 2026-04-22 12:47 | -26.13811 | 28.23053 | 5584 ft | 2 kts | 186° |
| 2026-04-22 12:47 | -26.13799 | 28.23054 | 5584 ft | 1 kts | 187° |
| 2026-04-22 12:47 | -26.13785 | 28.23052 | 5584 ft | 2 kts | 143° |
| 2026-04-22 12:48 | -26.13777 | 28.23040 | 5584 ft | 0 kts | 102° |
| 2026-04-22 12:48 | -26.13776 | 28.23033 | 5584 ft | 1 kts | 95° |
| 2026-04-22 12:48 | -26.13776 | 28.23031 | 5584 ft | 0 kts | 96° |
| 2026-04-22 12:51 | -26.13777 | 28.23033 | 5584 ft | 1 kts | 97° |
| 2026-04-22 12:51 | -26.13782 | 28.23077 | 5583 ft | 10 kts | 97° |
| 2026-04-22 12:52 | -26.13791 | 28.23169 | 5582 ft | 13 kts | 95° |
| 2026-04-22 12:52 | -26.13799 | 28.23258 | 5578 ft | 10 kts | 98° |
| 2026-04-22 12:52 | -26.13849 | 28.23314 | 5576 ft | 11 kts | 185° |
| 2026-04-22 12:52 | -26.13931 | 28.23290 | 5575 ft | 12 kts | 195° |
| 2026-04-22 12:53 | -26.14020 | 28.23261 | 5577 ft | 13 kts | 197° |
| 2026-04-22 12:53 | -26.14104 | 28.23236 | 5580 ft | 12 kts | 195° |
| 2026-04-22 12:53 | -26.14194 | 28.23209 | 5583 ft | 15 kts | 196° |
| 2026-04-22 12:53 | -26.14307 | 28.23212 | 5582 ft | 18 kts | 166° |
| 2026-04-22 12:54 | -26.14438 | 28.23250 | 5582 ft | 19 kts | 166° |
| 2026-04-22 12:54 | -26.14481 | 28.23270 | 5581 ft | 0 kts | 141° |
| 2026-04-22 12:58 | -26.14491 | 28.23282 | 5580 ft | 5 kts | 123° |
| 2026-04-22 12:58 | -26.14494 | 28.23346 | 5578 ft | 11 kts | 82° |
| 2026-04-22 12:58 | -26.14480 | 28.23441 | 5572 ft | 10 kts | 81° |
| 2026-04-22 12:58 | -26.14439 | 28.23499 | 5567 ft | 2 kts | 15° |
| 2026-04-22 12:59 | -26.14424 | 28.23504 | 5567 ft | 13 kts | 15° |
| 2026-04-22 12:59 | -26.14101 | 28.23602 | 5559 ft | 81 kts | 15° |
| 2026-04-22 12:59 | -26.13354 | 28.23831 | 5543 ft | 139 kts | 15° |
| 2026-04-22 12:59 | -26.12267 | 28.24170 | 5570 ft | 182 kts | 15° |
| 2026-04-22 13:00 | -26.11027 | 28.24597 | 6021 ft | 192 kts | 15° |
| 2026-04-22 13:00 | -26.09732 | 28.25023 | 6570 ft | 200 kts | 14° |
| 2026-04-22 13:00 | -26.08372 | 28.25382 | 7170 ft | 205 kts | 9° |
| 2026-04-22 13:00 | -26.06954 | 28.25349 | 7666 ft | 213 kts | 338° |
| 2026-04-22 13:01 | -26.05886 | 28.24293 | 8203 ft | 218 kts | 297° |
| 2026-04-22 13:01 | -26.05689 | 28.22610 | 8610 ft | 230 kts | 257° |
| 2026-04-22 13:01 | -26.06283 | 28.20973 | 9005 ft | 230 kts | 255° |
| 2026-04-22 13:01 | -26.06636 | 28.19235 | 9556 ft | 236 kts | 261° |
| 2026-04-22 13:02 | -26.06895 | 28.17444 | 10080 ft | 239 kts | 263° |
| 2026-04-22 13:02 | -26.07153 | 28.15452 | 10688 ft | 281 kts | 263° |
| 2026-04-22 13:02 | -26.07433 | 28.13223 | 11248 ft | 301 kts | 263° |
| 2026-04-22 13:02 | -26.07721 | 28.10911 | 11772 ft | 306 kts | 263° |
| 2026-04-22 13:03 | -26.08013 | 28.08567 | 12296 ft | 308 kts | 263° |
| 2026-04-22 13:03 | -26.08308 | 28.06209 | 12806 ft | 311 kts | 263° |
| 2026-04-22 13:03 | -26.08606 | 28.03810 | 13307 ft | 313 kts | 263° |
| 2026-04-22 13:03 | -26.08902 | 28.01435 | 13801 ft | 316 kts | 263° |
| 2026-04-22 13:04 | -26.09204 | 27.99010 | 14301 ft | 318 kts | 263° |
| 2026-04-22 13:04 | -26.09506 | 27.96585 | 14797 ft | 321 kts | 263° |
| 2026-04-22 13:04 | -26.10060 | 27.94202 | 15290 ft | 325 kts | 245° |
| 2026-04-22 13:04 | -26.11440 | 27.92199 | 15840 ft | 330 kts | 224° |
| 2026-04-22 13:05 | -26.13163 | 27.90387 | 16351 ft | 363 kts | 223° |
| 2026-04-22 13:05 | -26.15040 | 27.88446 | 16793 ft | 374 kts | 223° |
| 2026-04-22 13:05 | -26.16918 | 27.86506 | 17314 ft | 377 kts | 223° |
| 2026-04-22 13:05 | -26.18798 | 27.84567 | 17848 ft | 379 kts | 224° |
| 2026-04-22 13:06 | -26.20729 | 27.82576 | 18395 ft | 383 kts | 224° |
| 2026-04-22 13:06 | -26.22656 | 27.80592 | 18937 ft | 386 kts | 224° |
| 2026-04-22 13:06 | -26.24638 | 27.78553 | 19489 ft | 389 kts | 224° |
| 2026-04-22 13:06 | -26.26599 | 27.76538 | 20030 ft | 392 kts | 224° |
| 2026-04-22 13:07 | -26.28616 | 27.74467 | 20582 ft | 395 kts | 224° |
| 2026-04-22 13:07 | -26.30614 | 27.72420 | 21125 ft | 398 kts | 224° |
| 2026-04-22 13:07 | -26.32641 | 27.70346 | 21671 ft | 401 kts | 225° |
| 2026-04-22 13:07 | -26.34711 | 27.68229 | 22173 ft | 404 kts | 225° |
| 2026-04-22 13:08 | -26.36765 | 27.66129 | 22669 ft | 406 kts | 225° |
| 2026-04-22 13:08 | -26.38852 | 27.63997 | 23170 ft | 408 kts | 225° |
| 2026-04-22 13:08 | -26.40943 | 27.61864 | 23668 ft | 410 kts | 225° |
| 2026-04-22 13:08 | -26.43022 | 27.59745 | 24161 ft | 413 kts | 225° |
| 2026-04-22 13:09 | -26.45144 | 27.57616 | 24596 ft | 416 kts | 223° |
| 2026-04-22 13:09 | -26.47238 | 27.55393 | 25026 ft | 415 kts | 228° |
| 2026-04-22 13:09 | -26.49283 | 27.53171 | 25446 ft | 417 kts | 227° |
| 2026-04-22 13:09 | -26.51369 | 27.50931 | 25870 ft | 418 kts | 227° |
| 2026-04-22 13:10 | -26.53463 | 27.48690 | 26292 ft | 420 kts | 227° |
| 2026-04-22 13:10 | -26.55566 | 27.46442 | 26715 ft | 421 kts | 227° |
| 2026-04-22 13:10 | -26.57661 | 27.44200 | 27134 ft | 423 kts | 227° |
| 2026-04-22 13:10 | -26.59785 | 27.41926 | 27558 ft | 424 kts | 227° |
| 2026-04-22 13:11 | -26.61912 | 27.39650 | 27981 ft | 425 kts | 227° |
| 2026-04-22 13:11 | -26.64041 | 27.37369 | 28403 ft | 426 kts | 228° |
| 2026-04-22 13:11 | -26.66156 | 27.35102 | 28821 ft | 427 kts | 228° |
| 2026-04-22 13:11 | -26.68276 | 27.32828 | 29248 ft | 429 kts | 228° |
| 2026-04-22 13:12 | -26.70415 | 27.30532 | 29679 ft | 429 kts | 228° |
| 2026-04-22 13:12 | -26.72578 | 27.28211 | 30113 ft | 430 kts | 228° |
| 2026-04-22 13:12 | -26.74741 | 27.25887 | 30547 ft | 432 kts | 228° |
| 2026-04-22 13:12 | -26.76881 | 27.23587 | 30975 ft | 433 kts | 228° |
| 2026-04-22 13:13 | -26.79031 | 27.21276 | 31404 ft | 433 kts | 228° |
| 2026-04-22 13:13 | -26.81211 | 27.18929 | 31839 ft | 434 kts | 229° |
| 2026-04-22 13:13 | -26.83377 | 27.16596 | 32269 ft | 436 kts | 228° |
| 2026-04-22 13:13 | -26.85570 | 27.14234 | 32704 ft | 437 kts | 228° |
| 2026-04-22 13:14 | -26.87750 | 27.11885 | 33135 ft | 437 kts | 228° |
| 2026-04-22 13:14 | -26.89921 | 27.09541 | 33477 ft | 439 kts | 228° |
| 2026-04-22 13:14 | -26.92116 | 27.07173 | 33584 ft | 439 kts | 228° |
| 2026-04-22 13:14 | -26.94323 | 27.04791 | 33714 ft | 439 kts | 228° |
| 2026-04-22 13:15 | -26.96480 | 27.02435 | 33838 ft | 439 kts | 228° |
| 2026-04-22 13:15 | -26.98693 | 27.00003 | 33969 ft | 439 kts | 228° |
| 2026-04-22 13:15 | -27.00844 | 26.97634 | 34096 ft | 440 kts | 228° |
| 2026-04-22 13:15 | -27.03017 | 26.95243 | 34211 ft | 441 kts | 228° |
| 2026-04-22 13:16 | -27.05226 | 26.92806 | 34231 ft | 442 kts | 227° |
| 2026-04-22 13:16 | -27.09619 | 26.87964 | 34236 ft | 442 kts | 228° |
| 2026-04-22 13:17 | -27.13988 | 26.83139 | 34238 ft | 442 kts | 227° |
| 2026-04-22 13:17 | -27.18356 | 26.78310 | 34232 ft | 441 kts | 227° |
| 2026-04-22 13:18 | -27.22722 | 26.73479 | 34233 ft | 441 kts | 228° |
| 2026-04-22 13:18 | -27.27097 | 26.68631 | 34232 ft | 441 kts | 228° |
| 2026-04-22 13:19 | -27.31462 | 26.63787 | 34230 ft | 442 kts | 227° |
| 2026-04-22 13:19 | -27.35805 | 26.58963 | 34229 ft | 441 kts | 227° |
| 2026-04-22 13:20 | -27.40190 | 26.54087 | 34230 ft | 442 kts | 228° |
| 2026-04-22 13:20 | -27.44532 | 26.49252 | 34231 ft | 441 kts | 227° |
| 2026-04-22 13:21 | -27.48896 | 26.44390 | 34230 ft | 442 kts | 228° |
| 2026-04-22 13:21 | -27.53257 | 26.39520 | 34229 ft | 442 kts | 227° |
| 2026-04-22 13:22 | -27.57606 | 26.34661 | 34224 ft | 442 kts | 228° |
| 2026-04-22 13:22 | -27.61984 | 26.29764 | 34229 ft | 442 kts | 228° |
| 2026-04-22 13:22 | -27.64167 | 26.27319 | 34003 ft | 443 kts | 228° |
| 2026-04-22 13:23 | -27.66314 | 26.24915 | 33601 ft | 439 kts | 228° |
| 2026-04-22 13:23 | -27.68465 | 26.22504 | 33231 ft | 436 kts | 228° |
| 2026-04-22 13:23 | -27.70621 | 26.20085 | 32999 ft | 436 kts | 228° |
| 2026-04-22 13:23 | -27.72748 | 26.17698 | 32817 ft | 435 kts | 228° |
| 2026-04-22 13:24 | -27.74901 | 26.15282 | 32693 ft | 435 kts | 228° |
| 2026-04-22 13:24 | -27.77039 | 26.12879 | 32573 ft | 435 kts | 228° |
| 2026-04-22 13:24 | -27.79183 | 26.10468 | 32450 ft | 434 kts | 228° |
| 2026-04-22 13:24 | -27.81311 | 26.08074 | 32324 ft | 434 kts | 228° |
| 2026-04-22 13:25 | -27.83461 | 26.05654 | 32201 ft | 433 kts | 228° |
| 2026-04-22 13:25 | -27.85583 | 26.03265 | 32076 ft | 433 kts | 228° |
| 2026-04-22 13:25 | -27.87720 | 26.00856 | 31954 ft | 432 kts | 228° |
| 2026-04-22 13:25 | -27.89834 | 25.98472 | 31833 ft | 432 kts | 228° |
| 2026-04-22 13:26 | -27.91951 | 25.96084 | 31706 ft | 431 kts | 228° |
| 2026-04-22 13:26 | -27.94071 | 25.93690 | 31576 ft | 430 kts | 228° |
| 2026-04-22 13:26 | -27.96170 | 25.91320 | 31452 ft | 431 kts | 228° |
| 2026-04-22 13:26 | -27.98305 | 25.88906 | 31327 ft | 430 kts | 228° |
| 2026-04-22 13:27 | -28.00407 | 25.86527 | 31153 ft | 431 kts | 229° |
| 2026-04-22 13:27 | -28.02270 | 25.83964 | 30704 ft | 425 kts | 236° |
| 2026-04-22 13:27 | -28.04051 | 25.81293 | 30276 ft | 423 kts | 236° |
| 2026-04-22 13:27 | -28.05823 | 25.78626 | 29862 ft | 421 kts | 236° |
| 2026-04-22 13:28 | -28.07572 | 25.75990 | 29541 ft | 421 kts | 236° |
| 2026-04-22 13:28 | -28.09313 | 25.73366 | 29167 ft | 419 kts | 236° |
| 2026-04-22 13:28 | -28.11056 | 25.70737 | 28787 ft | 417 kts | 236° |
| 2026-04-22 13:28 | -28.12791 | 25.68117 | 28405 ft | 416 kts | 236° |
| 2026-04-22 13:29 | -28.14525 | 25.65499 | 28017 ft | 415 kts | 236° |
| 2026-04-22 13:29 | -28.16249 | 25.62894 | 27589 ft | 414 kts | 236° |
| 2026-04-22 13:29 | -28.17951 | 25.60320 | 27161 ft | 411 kts | 236° |
| 2026-04-22 13:29 | -28.19668 | 25.57721 | 26726 ft | 409 kts | 236° |
| 2026-04-22 13:30 | -28.21362 | 25.55157 | 26294 ft | 408 kts | 236° |
| 2026-04-22 13:30 | -28.23057 | 25.52588 | 25862 ft | 407 kts | 236° |
| 2026-04-22 13:30 | -28.24748 | 25.50026 | 25428 ft | 405 kts | 236° |
| 2026-04-22 13:30 | -28.26432 | 25.47471 | 24917 ft | 404 kts | 236° |
| 2026-04-22 13:31 | -28.28093 | 25.44948 | 24396 ft | 402 kts | 236° |
| 2026-04-22 13:31 | -28.29766 | 25.42409 | 23751 ft | 401 kts | 236° |
| 2026-04-22 13:31 | -28.31407 | 25.39915 | 23125 ft | 398 kts | 236° |
| 2026-04-22 13:31 | -28.32997 | 25.37367 | 22491 ft | 394 kts | 238° |
| 2026-04-22 13:32 | -28.34546 | 25.34785 | 21855 ft | 392 kts | 238° |
| 2026-04-22 13:32 | -28.36056 | 25.32258 | 21216 ft | 385 kts | 238° |
| 2026-04-22 13:32 | -28.37518 | 25.29813 | 20543 ft | 364 kts | 238° |
| 2026-04-22 13:32 | -28.38888 | 25.27516 | 19931 ft | 355 kts | 238° |
| 2026-04-22 13:33 | -28.40277 | 25.25185 | 19311 ft | 356 kts | 238° |
| 2026-04-22 13:33 | -28.41665 | 25.22855 | 18689 ft | 357 kts | 238° |
| 2026-04-22 13:33 | -28.43040 | 25.20547 | 18072 ft | 357 kts | 238° |
| 2026-04-22 13:33 | -28.44397 | 25.18267 | 17406 ft | 342 kts | 237° |
| 2026-04-22 13:34 | -28.45706 | 25.16066 | 16751 ft | 328 kts | 237° |
| 2026-04-22 13:34 | -28.46975 | 25.13931 | 16121 ft | 326 kts | 237° |
| 2026-04-22 13:34 | -28.48220 | 25.11837 | 15508 ft | 325 kts | 236° |
| 2026-04-22 13:34 | -28.49487 | 25.09707 | 14904 ft | 327 kts | 236° |
| 2026-04-22 13:35 | -28.50753 | 25.07575 | 14264 ft | 322 kts | 235° |
| 2026-04-22 13:35 | -28.51966 | 25.05532 | 13629 ft | 308 kts | 235° |
| 2026-04-22 13:35 | -28.53144 | 25.03551 | 12985 ft | 296 kts | 235° |
| 2026-04-22 13:35 | -28.54262 | 25.01668 | 12353 ft | 286 kts | 235° |
| 2026-04-22 13:36 | -28.55347 | 24.99812 | 11713 ft | 278 kts | 237° |
| 2026-04-22 13:36 | -28.56393 | 24.98018 | 11081 ft | 270 kts | 236° |
| 2026-04-22 13:36 | -28.57414 | 24.96274 | 10474 ft | 263 kts | 236° |
| 2026-04-22 13:36 | -28.58415 | 24.94562 | 10125 ft | 258 kts | 236° |
| 2026-04-22 13:37 | -28.59385 | 24.92902 | 9919 ft | 249 kts | 236° |
| 2026-04-22 13:37 | -28.60332 | 24.91276 | 9701 ft | 242 kts | 236° |
| 2026-04-22 13:37 | -28.61236 | 24.89722 | 9386 ft | 231 kts | 236° |
| 2026-04-22 13:37 | -28.62120 | 24.88198 | 9078 ft | 233 kts | 237° |
| 2026-04-22 13:38 | -28.62523 | 24.86428 | 8547 ft | 238 kts | 272° |
| 2026-04-22 13:38 | -28.62468 | 24.82862 | 7821 ft | 214 kts | 269° |
| 2026-04-22 13:38 | -28.62470 | 24.81193 | 7472 ft | 213 kts | 268° |
| 2026-04-22 13:39 | -28.62474 | 24.79515 | 7100 ft | 213 kts | 268° |
| 2026-04-22 13:39 | -28.62694 | 24.77875 | 6695 ft | 209 kts | 237° |
| 2026-04-22 13:39 | -28.63785 | 24.76884 | 6369 ft | 201 kts | 198° |
| 2026-04-22 13:39 | -28.65143 | 24.76597 | 6059 ft | 197 kts | 184° |
| 2026-04-22 13:40 | -28.66465 | 24.76517 | 5832 ft | 189 kts | 181° |
| 2026-04-22 13:40 | -28.67743 | 24.76494 | 5624 ft | 179 kts | 180° |
| 2026-04-22 13:40 | -28.68963 | 24.76489 | 5603 ft | 173 kts | 180° |
| 2026-04-22 13:40 | -28.70168 | 24.76491 | 5607 ft | 174 kts | 179° |
| 2026-04-22 13:41 | -28.71362 | 24.76489 | 5523 ft | 161 kts | 180° |
| 2026-04-22 13:41 | -28.72432 | 24.76488 | 5374 ft | 153 kts | 179° |
| 2026-04-22 13:41 | -28.73490 | 24.76489 | 5125 ft | 152 kts | 179° |
| 2026-04-22 13:41 | -28.74532 | 24.76495 | 4816 ft | 149 kts | 180° |
| 2026-04-22 13:42 | -28.75561 | 24.76494 | 4596 ft | 147 kts | 180° |
| 2026-04-22 13:42 | -28.76571 | 24.76500 | 4429 ft | 145 kts | 180° |
| 2026-04-22 13:42 | -28.77569 | 24.76506 | 4311 ft | 142 kts | 179° |
| 2026-04-22 13:42 | -28.78558 | 24.76512 | 4157 ft | 145 kts | 180° |
| 2026-04-22 13:43 | -28.79575 | 24.76516 | 3972 ft | 142 kts | 179° |
| 2026-04-22 13:43 | -28.80482 | 24.76516 | 3945 ft | 115 kts | 180° |
| 2026-04-22 13:43 | -28.81061 | 24.76511 | 3935 ft | 51 kts | 180° |
| 2026-04-22 13:43 | -28.81251 | 24.76500 | 3933 ft | 11 kts | 187° |
| 2026-04-22 13:44 | -28.81279 | 24.76508 | 3933 ft | 2 kts | 125° |
| 2026-04-22 13:44 | -28.81273 | 24.76525 | 3933 ft | 3 kts | 33° |
| 2026-04-22 13:44 | -28.81229 | 24.76525 | 3934 ft | 12 kts | 353° |
| 2026-04-22 13:44 | -28.81088 | 24.76514 | 3935 ft | 25 kts | 359° |
| 2026-04-22 13:45 | -28.80881 | 24.76515 | 3937 ft | 33 kts | 0° |
| 2026-04-22 13:45 | -28.80621 | 24.76513 | 3942 ft | 40 kts | 1° |
| 2026-04-22 13:45 | -28.80368 | 24.76512 | 3944 ft | 29 kts | 359° |
| 2026-04-22 13:45 | -28.80272 | 24.76612 | 3946 ft | 20 kts | 81° |
| 2026-04-22 13:46 | -28.80244 | 24.76808 | 3944 ft | 29 kts | 80° |
| 2026-04-22 13:46 | -28.80206 | 24.77052 | 3941 ft | 32 kts | 79° |
| 2026-04-22 13:46 | -28.80166 | 24.77306 | 3939 ft | 31 kts | 81° |
| 2026-04-22 13:46 | -28.80139 | 24.77473 | 3936 ft | 14 kts | 77° |
| 2026-04-22 13:47 | -28.80070 | 24.77520 | 3937 ft | 11 kts | 352° |
| 2026-04-22 13:47 | -28.80001 | 24.77506 | 3938 ft | 9 kts | 348° |
| 2026-04-22 13:47 | -28.79882 | 24.77476 | 3940 ft | 24 kts | 342° |
| 2026-04-22 13:47 | -28.79712 | 24.77405 | 3944 ft | 25 kts | 340° |
| 2026-04-22 13:48 | -28.79616 | 24.77346 | 3947 ft | 10 kts | 297° |
| 2026-04-22 13:48 | -28.79585 | 24.77283 | 3948 ft | 7 kts | 313° |
| 2026-04-22 13:48 | -28.79553 | 24.77259 | 3949 ft | 4 kts | 331° |
| 2026-04-22 13:48 | -28.79537 | 24.77254 | 3950 ft | 1 kts | 16° |
| 2026-04-22 13:49 | -28.79529 | 24.77272 | 3950 ft | 3 kts | 80° |
| 2026-04-22 13:49 | -28.79528 | 24.77286 | 3950 ft | 0 kts | 84° |